Westview, KY (40178)

2:37 PM CDT on July 04, 2015 (GMT -0500)
Eveleigh Road | | Change Station
CLOSE
Current Station
Personal Weather Station
Location: Leitchfield, KY
Elevation: 670 ft
Nearby Weather Stations

Elev 670 ft 37.58 °N, 86.34 °W | Updated 4 seconds ago

Mostly Cloudy
Mostly Cloudy
83.5 °F
Feels Like 91 °F
N
2.2
Wind Variable Wind from NW
Gusts 3.1 mph

Today
High -- | Low -- °F
--% Chance of Precip.
Yesterday
High -- | Low -- °F
Precip. -- in
5:29 AM 8:10 PM
Waning Gibbous, 90% visible
Pressure 29.99 in
Visibility 10.0 miles
Clouds Scattered Clouds 3000 ft
Mostly Cloudy 10000 ft
Heat Index 91 °F
Dew Point 75 °F
Humidity 76%
Rainfall 0.00 in
Snow Depth Not available.
UV 6 out of 12
Pollen .50 out of 12
Air Quality Not available.
Flu Activity Not available.
METAR KFTK 041858Z VRB02KT 10SM SCT030 BKN100 26/19 A2999 RMK AO2A SLP153 T02620193

More Conditions Fewer Conditions

Pressure 29.99 in
Visibility 10.0 miles
Clouds Scattered Clouds 3000 ft
Mostly Cloudy 10000 ft
Heat Index 91 °F
Dew Point 75 °F
Humidity 76%
Rainfall 0.00 in
Snow Depth Not available.
UV 6 out of 12
Pollen .50 out of 12
Air Quality Not available.
Flu Activity Not available.
METAR KFTK 041858Z VRB02KT 10SM SCT030 BKN100 26/19 A2999 RMK AO2A SLP153 T02620193

More Conditions Fewer Conditions

10-Day Weather Forecast

×

Almanac

Astronomy

Jul. 04, 2015 Rise Set
Actual Time
Civil Twilight
Nautical Twilight
Astronomical Twilight
Moon
Length of Visible Light
Length of Day
Tomorrow will be .
, % of the Moon is Illuminated

Today's Extremes

State Highs State Lows

Community

WunderPhotos

Upload Photos

1,835,065 photos uploaded!

WunderBlogs® & News

Nearby

Air Quality

  Air Quality AQ Index Pollutant
Not available.

Snow Depth

Station Depth Elevation

Earthquake Activity

City Distance Mag. Time & Date
Minimum magnitude displayed is 2.5.

Coastal Water Temperatures

Place Temperature

Stations

Nearby Weather Stations

Station Location Temp. Windchill Dew Point Humidity Wind Precip. Elev Updated Type